createdAt,value
2019-06-10T00:00:44.799Z,15.80
2019-06-10T00:03:15.163Z,15.80
2019-06-10T00:05:45.651Z,15.80
2019-06-10T00:08:16.040Z,15.80
2019-06-10T00:10:46.424Z,15.70
2019-06-10T00:13:16.793Z,15.70
2019-06-10T00:15:47.357Z,15.70
2019-06-10T00:18:35.308Z,15.60
2019-06-10T00:20:51.223Z,15.60
2019-06-10T00:23:21.963Z,15.60
2019-06-10T00:25:52.362Z,15.50
2019-06-10T00:28:22.749Z,15.50
2019-06-10T00:30:53.144Z,15.40
2019-06-10T00:33:23.536Z,15.40
2019-06-10T00:35:53.998Z,15.40
2019-06-10T00:38:24.372Z,15.40
2019-06-10T00:40:54.787Z,15.50
2019-06-10T00:43:25.244Z,15.40
2019-06-10T00:45:55.899Z,15.40
2019-06-10T00:48:29.403Z,15.50
2019-06-10T00:50:58.391Z,15.50
2019-06-10T00:53:31.685Z,15.50
2019-06-10T00:56:04.864Z,15.50
2019-06-10T00:58:34.301Z,15.50
2019-06-10T01:01:06.006Z,15.50
2019-06-10T01:03:36.429Z,15.50
2019-06-10T01:06:06.818Z,15.50
2019-06-10T01:08:37.608Z,15.60
2019-06-10T01:11:12.582Z,15.60
2019-06-10T01:13:41.626Z,15.50
2019-06-10T01:16:12.553Z,15.50
2019-06-10T01:18:44.096Z,15.40
2019-06-10T01:21:15.500Z,15.40
2019-06-10T01:23:46.133Z,15.40
2019-06-10T01:26:16.937Z,15.30
2019-06-10T01:28:48.658Z,15.30
2019-06-10T01:31:23.947Z,15.20
2019-06-10T01:33:51.414Z,15.20
2019-06-10T01:36:21.907Z,15.20
2019-06-10T01:38:52.286Z,15.20
2019-06-10T01:41:22.686Z,15.20
2019-06-10T01:43:53.059Z,15.10
2019-06-10T01:46:23.448Z,15.10
2019-06-10T01:48:53.826Z,15.10
2019-06-10T01:51:24.219Z,15.10
2019-06-10T01:53:54.642Z,15.10
2019-06-10T01:56:25.028Z,15.10
2019-06-10T01:58:55.424Z,15.10
2019-06-10T02:01:27.667Z,15.10
2019-06-10T02:03:58.101Z,15.10
2019-06-10T02:06:28.475Z,15.00
2019-06-10T02:09:06.434Z,15.00
2019-06-10T02:11:37.630Z,15.00
2019-06-10T02:14:09.425Z,15.00
2019-06-10T02:16:41.455Z,14.90
2019-06-10T02:19:14.247Z,14.90
2019-06-10T02:21:44.233Z,14.80
2019-06-10T02:24:16.046Z,14.80
2019-06-10T02:26:46.767Z,14.70
2019-06-10T02:29:17.320Z,14.70
2019-06-10T02:31:52.199Z,14.70
2019-06-10T02:34:27.036Z,14.70
2019-06-10T02:36:54.860Z,14.80
2019-06-10T02:39:33.881Z,14.80
2019-06-10T02:41:59.919Z,14.80
2019-06-10T02:44:34.336Z,14.80
2019-06-10T02:47:03.419Z,14.80
2019-06-10T02:49:50.679Z,14.90
2019-06-10T02:52:07.976Z,14.80
2019-06-10T02:54:38.360Z,14.80
2019-06-10T02:57:08.746Z,14.80
2019-06-10T02:59:39.136Z,14.80
2019-06-10T03:02:09.535Z,14.80
2019-06-10T03:04:43.125Z,14.80
2019-06-10T03:07:13.728Z,14.80
2019-06-10T03:09:45.775Z,14.80
2019-06-10T03:12:16.177Z,14.80
2019-06-10T03:14:46.548Z,14.80
2019-06-10T03:17:19.847Z,14.70
2019-06-10T03:19:53.528Z,14.70
2019-06-10T03:22:25.669Z,14.70
2019-06-10T03:24:55.458Z,14.70
2019-06-10T03:27:26.621Z,14.70
2019-06-10T03:29:57.933Z,14.70
2019-06-10T03:32:35.430Z,14.70
2019-06-10T03:35:05.413Z,14.70
2019-06-10T03:37:34.102Z,14.80
2019-06-10T03:40:06.390Z,14.80
2019-06-10T03:42:36.918Z,14.80
2019-06-10T03:45:09.265Z,14.90
2019-06-10T03:47:39.659Z,14.90
2019-06-10T03:50:13.039Z,14.90
2019-06-10T03:52:43.319Z,14.90
2019-06-10T03:55:13.778Z,15.00
2019-06-10T03:57:44.159Z,15.00
2019-06-10T04:00:15.057Z,15.00
2019-06-10T04:02:45.435Z,15.00
2019-06-10T04:05:15.910Z,15.00
2019-06-10T04:07:46.290Z,15.00
2019-06-10T04:10:17.543Z,15.00
2019-06-10T04:12:47.950Z,15.00
2019-06-10T04:15:19.634Z,15.10
2019-06-10T04:17:53.090Z,15.10
2019-06-10T04:20:27.290Z,15.10
2019-06-10T04:22:55.306Z,15.10
2019-06-10T04:25:28.265Z,15.10
2019-06-10T04:27:57.778Z,15.10
2019-06-10T04:30:29.325Z,15.10
2019-06-10T04:33:02.175Z,15.10
2019-06-10T04:35:33.705Z,15.10
2019-06-10T04:38:04.310Z,15.00
2019-06-10T04:40:34.711Z,15.10
2019-06-10T04:43:05.092Z,15.10
2019-06-10T04:45:35.477Z,15.10
2019-06-10T04:48:05.876Z,15.20
2019-06-10T04:50:42.792Z,15.20
2019-06-10T04:53:08.368Z,15.20
2019-06-10T04:55:38.740Z,15.20
2019-06-10T04:58:09.152Z,15.20
2019-06-10T05:00:39.529Z,15.10
2019-06-10T05:03:11.975Z,15.10
2019-06-10T05:05:43.094Z,15.10
2019-06-10T05:08:13.571Z,15.10
2019-06-10T05:10:44.185Z,15.10
2019-06-10T05:13:14.593Z,15.20
2019-06-10T05:15:45.223Z,15.30
2019-06-10T05:18:15.633Z,15.40
2019-06-10T05:20:54.804Z,15.60
2019-06-10T05:23:18.185Z,15.80
2019-06-10T05:25:48.560Z,16.00
2019-06-10T05:28:19.977Z,16.20
2019-06-10T05:30:50.336Z,16.80
2019-06-10T05:33:23.086Z,17.90
2019-06-10T05:35:53.096Z,18.90
2019-06-10T05:38:25.881Z,19.80
2019-06-10T05:40:55.655Z,20.40
2019-06-10T05:43:26.720Z,21.10
2019-06-10T05:45:58.182Z,21.60
2019-06-10T05:48:28.638Z,22.10
2019-06-10T05:51:02.897Z,22.70
2019-06-10T05:53:33.570Z,23.20
2019-06-10T05:56:03.214Z,23.70
2019-06-10T05:58:35.813Z,23.90
2019-06-10T06:01:05.855Z,24.10
2019-06-10T06:03:37.012Z,24.30
2019-06-10T06:06:07.550Z,24.20
2019-06-10T06:08:37.949Z,24.70
2019-06-10T06:11:09.403Z,25.30
2019-06-10T06:13:39.810Z,25.60
2019-06-10T06:16:12.570Z,25.90
2019-06-10T06:18:42.544Z,26.20
2019-06-10T06:21:25.507Z,26.40
2019-06-10T06:23:44.960Z,25.70
2019-06-10T06:26:16.823Z,24.50
2019-06-10T06:28:48.275Z,23.40
2019-06-10T06:31:18.664Z,22.90
2019-06-10T06:33:49.044Z,22.70
2019-06-10T06:36:19.428Z,23.40
2019-06-10T06:38:49.808Z,23.30
2019-06-10T06:41:22.410Z,22.80
2019-06-10T06:43:53.017Z,22.30
2019-06-10T06:46:23.649Z,22.50
2019-06-10T06:48:55.013Z,22.30
2019-06-10T06:51:38.046Z,22.30
2019-06-10T06:53:57.497Z,22.90
2019-06-10T06:56:28.887Z,23.80
2019-06-10T06:58:59.255Z,23.40
2019-06-10T07:01:32.920Z,22.80
2019-06-10T07:04:02.594Z,22.70
2019-06-10T07:06:34.545Z,23.60
2019-06-10T07:09:08.258Z,24.40
2019-06-10T07:11:44.943Z,24.70
2019-06-10T07:14:14.054Z,25.00
2019-06-10T07:16:46.563Z,25.50
2019-06-10T07:19:16.613Z,25.50
2019-06-10T07:22:07.616Z,25.30
2019-06-10T07:24:19.067Z,25.40
2019-06-10T07:26:54.035Z,25.70
2019-06-10T07:29:22.566Z,25.30
2019-06-10T07:31:53.847Z,24.90
2019-06-10T07:34:24.259Z,24.40
2019-06-10T07:36:54.659Z,24.40
2019-06-10T07:39:25.059Z,25.00
2019-06-10T07:41:55.523Z,25.40
2019-06-10T07:44:25.899Z,25.70
2019-06-10T07:46:56.271Z,25.90
2019-06-10T07:49:26.681Z,25.70
2019-06-10T07:52:12.047Z,25.80
2019-06-10T07:54:29.475Z,25.70
2019-06-10T07:57:02.519Z,25.70
2019-06-10T07:59:33.831Z,25.40
2019-06-10T08:02:04.325Z,25.60
2019-06-10T08:04:35.205Z,26.00
2019-06-10T08:07:06.813Z,26.30
2019-06-10T08:09:37.380Z,26.40
2019-06-10T08:12:07.805Z,26.70
2019-06-10T08:14:39.314Z,26.80
2019-06-10T08:17:09.867Z,27.00
2019-06-10T08:19:45.402Z,27.30
2019-06-10T08:22:14.343Z,27.50
2019-06-10T08:24:45.424Z,27.50
2019-06-10T08:27:16.086Z,27.00
2019-06-10T08:29:49.551Z,27.00
2019-06-10T08:32:18.570Z,27.30
2019-06-10T08:34:49.967Z,27.10
2019-06-10T08:37:23.411Z,27.40
2019-06-10T08:39:53.403Z,27.50
2019-06-10T08:42:23.780Z,27.60
2019-06-10T08:44:54.159Z,27.70
2019-06-10T08:47:24.535Z,27.50
2019-06-10T08:49:54.922Z,27.50
2019-06-10T08:52:25.290Z,27.70
2019-06-10T08:54:55.681Z,27.50
2019-06-10T08:57:26.051Z,27.60
2019-06-10T08:59:56.665Z,27.80
2019-06-10T09:02:27.037Z,28.00
2019-06-10T09:04:57.450Z,28.00
2019-06-10T09:07:27.818Z,28.10
2019-06-10T09:09:58.229Z,28.50
2019-06-10T09:12:35.856Z,28.30
2019-06-10T09:15:03.155Z,28.20
2019-06-10T09:17:33.998Z,28.40
2019-06-10T09:20:07.476Z,28.50
2019-06-10T09:22:39.795Z,28.20
2019-06-10T09:25:12.441Z,28.30
2019-06-10T09:27:46.609Z,28.30
2019-06-10T09:30:17.187Z,28.10
2019-06-10T09:32:51.198Z,27.30
2019-06-10T09:35:19.939Z,27.30
2019-06-10T09:37:53.325Z,27.20
2019-06-10T09:40:24.575Z,27.40
2019-06-10T09:42:55.625Z,27.80
2019-06-10T09:45:26.152Z,27.80
2019-06-10T09:47:59.829Z,27.80
2019-06-10T09:50:48.732Z,27.70
2019-06-10T09:53:26.671Z,27.60
2019-06-10T09:55:49.719Z,27.80
2019-06-10T09:58:18.845Z,27.90
2019-06-10T10:00:58.580Z,28.00
2019-06-10T10:03:28.921Z,28.20
2019-06-10T10:06:11.667Z,28.20
2019-06-10T10:08:32.742Z,28.20
2019-06-10T10:11:03.410Z,28.10
2019-06-10T10:13:35.276Z,28.10
2019-06-10T10:16:06.211Z,28.20
2019-06-10T10:18:36.596Z,28.20
2019-06-10T10:21:06.987Z,28.20
2019-06-10T10:23:51.183Z,28.00
2019-06-10T10:26:09.483Z,27.70
2019-06-10T10:28:42.367Z,27.50
2019-06-10T10:31:13.368Z,27.70
2019-06-10T10:33:44.314Z,28.10
2019-06-10T10:36:14.717Z,28.60
2019-06-10T10:38:46.665Z,28.30
2019-06-10T10:41:17.192Z,28.40
2019-06-10T10:43:50.728Z,28.60
2019-06-10T10:46:22.933Z,28.30
2019-06-10T10:48:56.044Z,28.00
2019-06-10T10:51:23.889Z,27.70
2019-06-10T10:54:18.833Z,27.40
2019-06-10T10:56:26.856Z,27.10
2019-06-10T10:58:58.527Z,27.20
2019-06-10T11:01:29.259Z,27.30
2019-06-10T11:04:02.787Z,27.50
2019-06-10T11:06:32.324Z,27.30
2019-06-10T11:09:02.732Z,27.30
2019-06-10T11:11:35.043Z,27.00
2019-06-10T11:14:05.947Z,27.10
2019-06-10T11:16:36.356Z,27.40
2019-06-10T11:19:06.711Z,27.40
2019-06-10T11:21:37.112Z,27.50
2019-06-10T11:24:07.540Z,27.60
2019-06-10T11:26:37.994Z,27.30
2019-06-10T11:29:08.361Z,27.10
2019-06-10T11:31:38.830Z,26.80
2019-06-10T11:34:09.214Z,26.60
2019-06-10T11:36:41.770Z,26.60
2019-06-10T11:39:13.527Z,26.50
2019-06-10T11:41:43.851Z,27.00
2019-06-10T11:44:14.770Z,27.10
2019-06-10T11:46:46.611Z,27.20
2019-06-10T11:49:17.056Z,27.20
2019-06-10T11:51:47.520Z,27.20
2019-06-10T11:54:17.901Z,27.30
2019-06-10T11:56:48.296Z,27.10
2019-06-10T11:59:18.675Z,26.90
2019-06-10T12:01:51.410Z,26.80
2019-06-10T12:04:23.779Z,26.80
2019-06-10T12:06:54.607Z,26.80
2019-06-10T12:09:25.258Z,26.70
2019-06-10T12:12:01.286Z,26.70
2019-06-10T12:14:27.789Z,26.70
2019-06-10T12:17:21.959Z,26.40
2019-06-10T12:19:33.542Z,26.50
2019-06-10T12:22:07.207Z,26.50
2019-06-10T12:24:34.771Z,26.40
2019-06-10T12:27:05.338Z,26.50
2019-06-10T12:29:35.735Z,26.50
2019-06-10T12:32:07.571Z,26.20
2019-06-10T12:34:38.277Z,25.90
2019-06-10T12:37:12.975Z,25.70
2019-06-10T12:39:42.185Z,25.50
2019-06-10T12:42:14.344Z,25.50
2019-06-10T12:44:44.779Z,25.50
2019-06-10T12:47:15.294Z,25.40
2019-06-10T12:49:45.757Z,25.50
2019-06-10T12:52:16.206Z,25.50
2019-06-10T12:54:46.579Z,25.40
2019-06-10T12:57:17.009Z,25.30
2019-06-10T12:59:47.390Z,25.30
2019-06-10T13:02:23.119Z,25.30
2019-06-10T13:04:52.135Z,25.30
2019-06-10T13:07:24.713Z,25.30
2019-06-10T13:09:57.809Z,25.30
2019-06-10T13:12:28.473Z,25.20
2019-06-10T13:14:59.972Z,25.00
2019-06-10T13:17:31.019Z,24.90
2019-06-10T13:20:04.784Z,24.90
2019-06-10T13:22:33.547Z,24.90
2019-06-10T13:25:07.580Z,24.90
2019-06-10T13:27:37.954Z,25.10
2019-06-10T13:30:09.057Z,25.20
2019-06-10T13:32:39.432Z,25.30
2019-06-10T13:35:12.313Z,25.30
2019-06-10T13:37:42.912Z,25.20
2019-06-10T13:40:14.300Z,25.10
2019-06-10T13:42:44.708Z,25.10
2019-06-10T13:45:15.421Z,24.90
2019-06-10T13:47:47.356Z,24.60
2019-06-10T13:50:19.431Z,24.40
2019-06-10T13:52:52.057Z,24.40
2019-06-10T13:55:22.418Z,24.40
2019-06-10T13:57:53.397Z,24.40
2019-06-10T14:00:40.662Z,24.40
2019-06-10T14:02:56.289Z,24.20
2019-06-10T14:05:26.728Z,24.10
2019-06-10T14:07:57.124Z,24.00
2019-06-10T14:10:27.498Z,23.90
2019-06-10T14:12:57.891Z,23.80
2019-06-10T14:15:28.257Z,23.90
2019-06-10T14:17:58.645Z,24.00
2019-06-10T14:20:29.013Z,24.10
2019-06-10T14:22:59.406Z,24.20
2019-06-10T14:25:29.801Z,24.30
2019-06-10T14:28:04.318Z,24.50
2019-06-10T14:30:33.984Z,24.50
2019-06-10T14:33:05.664Z,24.70
2019-06-10T14:35:36.097Z,24.80
2019-06-10T14:38:06.874Z,24.90
2019-06-10T14:40:38.348Z,25.00
2019-06-10T14:43:08.724Z,25.10
2019-06-10T14:45:39.115Z,25.10
2019-06-10T14:48:10.806Z,25.10
2019-06-10T14:50:43.437Z,25.00
2019-06-10T14:53:15.649Z,24.90
2019-06-10T14:55:46.125Z,24.90
2019-06-10T14:58:19.221Z,24.90
2019-06-10T15:00:48.617Z,25.00
2019-06-10T15:03:20.046Z,25.10
2019-06-10T15:05:52.863Z,25.30
2019-06-10T15:08:23.447Z,25.30
2019-06-10T15:10:53.822Z,25.50
2019-06-10T15:13:24.221Z,25.60
2019-06-10T15:15:54.603Z,25.60
2019-06-10T15:18:24.998Z,25.70
2019-06-10T15:20:55.403Z,25.80
2019-06-10T15:23:25.768Z,25.70
2019-06-10T15:25:57.236Z,25.80
2019-06-10T15:28:27.809Z,25.70
2019-06-10T15:30:58.256Z,25.50
2019-06-10T15:33:28.654Z,25.40
2019-06-10T15:35:59.017Z,25.30
2019-06-10T15:38:29.422Z,25.10
2019-06-10T15:40:59.886Z,24.90
2019-06-10T15:43:32.874Z,24.80
2019-06-10T15:46:03.421Z,24.70
2019-06-10T15:48:33.905Z,24.60
2019-06-10T15:51:04.277Z,24.60
2019-06-10T15:53:34.752Z,24.50
2019-06-10T15:56:16.258Z,24.40
2019-06-10T15:58:37.215Z,24.40
2019-06-10T16:01:07.595Z,24.40
2019-06-10T16:03:37.999Z,24.40
2019-06-10T16:06:08.394Z,24.40
2019-06-10T16:08:38.793Z,24.40
2019-06-10T16:11:09.252Z,24.40
2019-06-10T16:13:39.791Z,24.40
2019-06-10T16:16:10.406Z,24.30
2019-06-10T16:18:42.306Z,24.30
2019-06-10T16:21:15.228Z,24.00
2019-06-10T16:23:44.975Z,23.90
2019-06-10T16:26:16.224Z,23.80
2019-06-10T16:28:46.621Z,23.70
2019-06-10T16:31:18.236Z,23.60
2019-06-10T16:33:49.612Z,23.60
2019-06-10T16:36:21.814Z,23.60
2019-06-10T16:38:52.916Z,23.50
2019-06-10T16:41:26.064Z,23.40
2019-06-10T16:43:55.443Z,23.40
2019-06-10T16:46:26.978Z,23.40
2019-06-10T16:48:57.423Z,23.30
2019-06-10T16:51:27.783Z,23.20
2019-06-10T16:53:58.165Z,23.10
2019-06-10T16:56:28.545Z,23.00
2019-06-10T16:58:58.941Z,23.00
2019-06-10T17:01:30.949Z,22.90
2019-06-10T17:04:01.451Z,22.90
2019-06-10T17:06:32.714Z,22.80
2019-06-10T17:09:04.476Z,22.70
2019-06-10T17:11:35.985Z,22.70
2019-06-10T17:14:06.792Z,22.60
2019-06-10T17:16:40.548Z,22.60
2019-06-10T17:19:10.244Z,22.40
2019-06-10T17:21:42.208Z,22.20
2019-06-10T17:24:12.888Z,22.10
2019-06-10T17:26:44.274Z,22.00
2019-06-10T17:29:14.676Z,22.00
2019-06-10T17:31:45.043Z,21.90
2019-06-10T17:34:15.440Z,21.80
2019-06-10T17:36:47.356Z,21.70
2019-06-10T17:39:17.752Z,21.60
2019-06-10T17:41:48.126Z,21.60
2019-06-10T17:44:18.640Z,21.50
2019-06-10T17:46:49.018Z,21.40
2019-06-10T17:49:19.489Z,21.40
2019-06-10T17:51:52.463Z,21.20
2019-06-10T17:54:23.697Z,21.20
2019-06-10T17:56:54.137Z,21.00
2019-06-10T17:59:25.338Z,20.90
2019-06-10T18:01:55.769Z,20.90
2019-06-10T18:04:27.339Z,20.80
2019-06-10T18:06:57.703Z,20.70
2019-06-10T18:09:28.112Z,20.70
2019-06-10T18:11:58.482Z,20.70
2019-06-10T18:14:30.121Z,20.70
2019-06-10T18:17:02.126Z,20.60
2019-06-10T18:19:35.939Z,20.70
2019-06-10T18:22:04.640Z,20.60
2019-06-10T18:24:35.018Z,20.60
2019-06-10T18:27:05.391Z,20.60
2019-06-10T18:29:37.135Z,20.60
2019-06-10T18:32:07.641Z,20.60
2019-06-10T18:34:38.956Z,20.60
2019-06-10T18:37:09.350Z,20.70
2019-06-10T18:39:43.104Z,20.60
2019-06-10T18:42:12.860Z,20.60
2019-06-10T18:44:43.254Z,20.60
2019-06-10T18:47:13.623Z,20.50
2019-06-10T18:49:44.192Z,20.50
2019-06-10T18:52:14.571Z,20.40
2019-06-10T18:54:44.967Z,20.40
2019-06-10T18:57:15.478Z,20.30
2019-06-10T18:59:45.866Z,20.20
2019-06-10T19:02:16.508Z,20.20
2019-06-10T19:04:46.896Z,20.20
2019-06-10T19:07:17.265Z,20.10
2019-06-10T19:09:48.150Z,20.10
2019-06-10T19:12:18.633Z,20.10
2019-06-10T19:14:49.006Z,20.10
2019-06-10T19:17:22.924Z,20.10
2019-06-10T19:19:53.253Z,20.10
2019-06-10T19:22:23.914Z,20.10
2019-06-10T19:24:54.301Z,20.10
2019-06-10T19:27:24.691Z,20.10
2019-06-10T19:29:55.272Z,20.00
2019-06-10T19:32:25.634Z,20.00
2019-06-10T19:34:56.022Z,20.00
2019-06-10T19:37:26.503Z,20.00
2019-06-10T19:39:57.041Z,20.00
2019-06-10T19:42:27.423Z,20.00
2019-06-10T19:44:57.809Z,20.00
2019-06-10T19:47:28.189Z,20.00
2019-06-10T19:49:58.565Z,20.00
2019-06-10T19:52:28.947Z,19.90
2019-06-10T19:54:59.352Z,19.90
2019-06-10T19:57:29.726Z,19.90
2019-06-10T20:00:08.389Z,19.70
2019-06-10T20:02:34.237Z,19.70
2019-06-10T20:05:09.615Z,19.60
2019-06-10T20:07:44.163Z,19.50
2019-06-10T20:10:13.350Z,19.50
2019-06-10T20:12:46.641Z,19.40
2019-06-10T20:15:26.459Z,19.30
2019-06-10T20:17:56.839Z,19.10
2019-06-10T20:20:27.238Z,19.00
2019-06-10T20:22:58.370Z,18.80
2019-06-10T20:25:28.800Z,18.60
2019-06-10T20:27:59.185Z,18.40
2019-06-10T20:30:29.686Z,18.20
2019-06-10T20:33:03.051Z,18.00
2019-06-10T20:35:32.759Z,17.90
2019-06-10T20:38:05.121Z,17.80
2019-06-10T20:40:35.696Z,17.70
2019-06-10T20:43:06.266Z,17.50
2019-06-10T20:45:37.612Z,17.50
2019-06-10T20:48:09.149Z,17.40
2019-06-10T20:50:40.984Z,17.30
2019-06-10T20:53:18.342Z,17.20
2019-06-10T20:55:51.259Z,17.20
2019-06-10T20:58:16.061Z,17.10
2019-06-10T21:00:51.893Z,17.00
2019-06-10T21:03:18.668Z,16.90
2019-06-10T21:05:53.529Z,16.90
2019-06-10T21:08:25.654Z,16.80
2019-06-10T21:10:56.526Z,16.90
2019-06-10T21:13:26.899Z,16.90
2019-06-10T21:15:59.333Z,16.80
2019-06-10T21:18:29.374Z,16.90
2019-06-10T21:21:02.524Z,16.90
2019-06-10T21:23:32.883Z,16.90
2019-06-10T21:26:03.322Z,16.90
2019-06-10T21:28:34.630Z,16.80
2019-06-10T21:31:05.019Z,16.80
2019-06-10T21:33:35.404Z,16.80
2019-06-10T21:36:05.859Z,16.80
2019-06-10T21:38:36.245Z,16.80
2019-06-10T21:41:06.634Z,16.80
2019-06-10T21:43:36.997Z,16.80
2019-06-10T21:46:07.391Z,16.80
2019-06-10T21:48:37.762Z,16.70
2019-06-10T21:51:08.177Z,16.70
2019-06-10T21:53:38.546Z,16.70
2019-06-10T21:56:08.927Z,16.70
2019-06-10T21:58:39.317Z,16.70
2019-06-10T22:01:14.151Z,16.70
2019-06-10T22:03:44.461Z,16.70
2019-06-10T22:06:15.388Z,16.70
2019-06-10T22:08:45.803Z,16.80
2019-06-10T22:11:17.139Z,16.70
2019-06-10T22:13:48.092Z,16.70
2019-06-10T22:16:18.639Z,16.80
2019-06-10T22:18:49.170Z,16.80
2019-06-10T22:21:19.516Z,16.70
2019-06-10T22:23:55.231Z,16.80
2019-06-10T22:26:23.672Z,16.80
2019-06-10T22:28:57.173Z,16.80
2019-06-10T22:31:26.617Z,16.80
2019-06-10T22:33:57.702Z,16.80
2019-06-10T22:36:28.203Z,16.80
2019-06-10T22:38:59.378Z,16.70
2019-06-10T22:41:31.568Z,16.70
2019-06-10T22:44:03.493Z,16.70
2019-06-10T22:46:34.186Z,16.60
2019-06-10T22:49:04.558Z,16.60
2019-06-10T22:51:34.964Z,16.60
2019-06-10T22:54:05.505Z,16.60
2019-06-10T22:56:35.899Z,16.60
2019-06-10T22:59:19.101Z,16.60
2019-06-10T23:01:52.196Z,16.70
2019-06-10T23:04:22.368Z,16.70
2019-06-10T23:06:54.864Z,16.80
2019-06-10T23:09:25.148Z,16.80
2019-06-10T23:11:56.467Z,16.80
2019-06-10T23:14:27.687Z,16.70
2019-06-10T23:16:59.582Z,16.70
2019-06-10T23:19:32.948Z,16.70
2019-06-10T23:22:03.336Z,16.70
2019-06-10T23:24:33.676Z,16.70
2019-06-10T23:27:04.090Z,16.70
2019-06-10T23:29:34.463Z,16.80
2019-06-10T23:32:06.996Z,16.80
2019-06-10T23:34:36.962Z,16.80
2019-06-10T23:37:07.355Z,16.80
2019-06-10T23:39:37.729Z,16.70
2019-06-10T23:42:08.148Z,16.70
2019-06-10T23:44:38.507Z,16.70
2019-06-10T23:47:08.906Z,16.70
2019-06-10T23:49:39.276Z,16.70
2019-06-10T23:52:09.666Z,16.70
2019-06-10T23:54:40.046Z,16.80
2019-06-10T23:57:12.902Z,16.80
2019-06-10T23:59:42.796Z,16.90
